sensor_id;sensor_type;location;lat;lon;timestamp;temperature;humidity
9837;DHT22;4957;51.412;6.724;2022-08-02T00:01:50;20.80;55.50
9837;DHT22;4957;51.412;6.724;2022-08-02T00:04:16;20.80;55.60
9837;DHT22;4957;51.412;6.724;2022-08-02T00:06:42;20.70;55.60
9837;DHT22;4957;51.412;6.724;2022-08-02T00:09:07;20.70;55.60
9837;DHT22;4957;51.412;6.724;2022-08-02T00:11:33;20.70;55.60
9837;DHT22;4957;51.412;6.724;2022-08-02T00:13:59;20.60;55.70
9837;DHT22;4957;51.412;6.724;2022-08-02T00:16:25;20.60;55.70
9837;DHT22;4957;51.412;6.724;2022-08-02T00:18:51;20.50;55.50
9837;DHT22;4957;51.412;6.724;2022-08-02T00:21:16;20.50;55.70
9837;DHT22;4957;51.412;6.724;2022-08-02T00:23:42;20.50;55.70
9837;DHT22;4957;51.412;6.724;2022-08-02T00:26:08;20.40;55.90
9837;DHT22;4957;51.412;6.724;2022-08-02T00:28:33;20.30;56.00
9837;DHT22;4957;51.412;6.724;2022-08-02T00:30:59;20.30;55.90
9837;DHT22;4957;51.412;6.724;2022-08-02T00:33:25;20.30;56.00
9837;DHT22;4957;51.412;6.724;2022-08-02T00:35:51;20.20;55.80
9837;DHT22;4957;51.412;6.724;2022-08-02T00:38:17;20.20;56.10
9837;DHT22;4957;51.412;6.724;2022-08-02T00:40:47;20.20;56.60
9837;DHT22;4957;51.412;6.724;2022-08-02T00:43:12;20.10;56.70
9837;DHT22;4957;51.412;6.724;2022-08-02T00:45:39;20.10;56.90
9837;DHT22;4957;51.412;6.724;2022-08-02T00:48:07;20.10;56.90
9837;DHT22;4957;51.412;6.724;2022-08-02T00:50:34;20.10;57.10
9837;DHT22;4957;51.412;6.724;2022-08-02T00:53:00;20.00;56.90
9837;DHT22;4957;51.412;6.724;2022-08-02T00:55:26;20.00;57.00
9837;DHT22;4957;51.412;6.724;2022-08-02T00:57:52;20.00;57.20
9837;DHT22;4957;51.412;6.724;2022-08-02T01:00:18;20.00;57.30
9837;DHT22;4957;51.412;6.724;2022-08-02T01:02:44;19.90;57.40
9837;DHT22;4957;51.412;6.724;2022-08-02T01:05:11;19.90;57.50
9837;DHT22;4957;51.412;6.724;2022-08-02T01:07:37;19.90;57.30
9837;DHT22;4957;51.412;6.724;2022-08-02T01:10:04;19.90;57.50
9837;DHT22;4957;51.412;6.724;2022-08-02T01:12:30;19.80;57.50
9837;DHT22;4957;51.412;6.724;2022-08-02T01:14:59;19.80;57.50
9837;DHT22;4957;51.412;6.724;2022-08-02T01:17:31;19.80;57.70
9837;DHT22;4957;51.412;6.724;2022-08-02T01:34:15;19.70;58.30
9837;DHT22;4957;51.412;6.724;2022-08-02T01:36:47;19.60;58.20
9837;DHT22;4957;51.412;6.724;2022-08-02T01:39:17;19.50;58.10
9837;DHT22;4957;51.412;6.724;2022-08-02T01:41:44;19.50;58.30
9837;DHT22;4957;51.412;6.724;2022-08-02T01:44:12;19.50;58.30
9837;DHT22;4957;51.412;6.724;2022-08-02T01:46:41;19.50;58.60
9837;DHT22;4957;51.412;6.724;2022-08-02T01:49:11;19.40;58.40
9837;DHT22;4957;51.412;6.724;2022-08-02T01:51:39;19.40;58.50
9837;DHT22;4957;51.412;6.724;2022-08-02T01:54:26;19.40;58.50
9837;DHT22;4957;51.412;6.724;2022-08-02T01:56:55;19.40;58.60
9837;DHT22;4957;51.412;6.724;2022-08-02T01:59:22;19.30;58.50
9837;DHT22;4957;51.412;6.724;2022-08-02T02:01:51;19.30;58.90
9837;DHT22;4957;51.412;6.724;2022-08-02T02:04:18;19.30;59.10
9837;DHT22;4957;51.412;6.724;2022-08-02T02:06:45;19.20;59.10
9837;DHT22;4957;51.412;6.724;2022-08-02T02:09:13;19.30;59.10
9837;DHT22;4957;51.412;6.724;2022-08-02T02:11:42;19.20;58.90
9837;DHT22;4957;51.412;6.724;2022-08-02T02:14:08;19.20;59.00
9837;DHT22;4957;51.412;6.724;2022-08-02T02:16:36;19.10;59.10
9837;DHT22;4957;51.412;6.724;2022-08-02T02:19:02;19.10;59.20
9837;DHT22;4957;51.412;6.724;2022-08-02T02:21:28;19.10;59.00
9837;DHT22;4957;51.412;6.724;2022-08-02T02:23:54;19.10;59.00
9837;DHT22;4957;51.412;6.724;2022-08-02T02:26:20;19.00;59.30
9837;DHT22;4957;51.412;6.724;2022-08-02T02:28:47;19.00;59.10
9837;DHT22;4957;51.412;6.724;2022-08-02T02:31:16;19.00;59.40
9837;DHT22;4957;51.412;6.724;2022-08-02T02:33:50;18.90;59.50
9837;DHT22;4957;51.412;6.724;2022-08-02T02:36:18;18.90;59.70
9837;DHT22;4957;51.412;6.724;2022-08-02T02:38:46;18.90;60.20
9837;DHT22;4957;51.412;6.724;2022-08-02T02:41:13;18.80;59.50
9837;DHT22;4957;51.412;6.724;2022-08-02T02:43:41;18.70;59.40
9837;DHT22;4957;51.412;6.724;2022-08-02T02:46:09;18.70;59.30
9837;DHT22;4957;51.412;6.724;2022-08-02T02:48:35;18.70;59.60
9837;DHT22;4957;51.412;6.724;2022-08-02T02:51:05;18.60;59.70
9837;DHT22;4957;51.412;6.724;2022-08-02T02:53:34;18.60;60.20
9837;DHT22;4957;51.412;6.724;2022-08-02T02:56:00;18.60;59.80
9837;DHT22;4957;51.412;6.724;2022-08-02T02:58:27;18.50;59.90
9837;DHT22;4957;51.412;6.724;2022-08-02T03:00:53;18.50;60.50
9837;DHT22;4957;51.412;6.724;2022-08-02T03:03:37;18.50;60.40
9837;DHT22;4957;51.412;6.724;2022-08-02T03:06:04;18.40;60.40
9837;DHT22;4957;51.412;6.724;2022-08-02T03:08:30;18.40;60.60
9837;DHT22;4957;51.412;6.724;2022-08-02T03:10:55;18.40;60.90
9837;DHT22;4957;51.412;6.724;2022-08-02T03:13:22;18.40;61.00
9837;DHT22;4957;51.412;6.724;2022-08-02T03:15:51;18.30;60.80
9837;DHT22;4957;51.412;6.724;2022-08-02T03:18:38;18.30;60.90
9837;DHT22;4957;51.412;6.724;2022-08-02T03:21:06;18.20;61.70
9837;DHT22;4957;51.412;6.724;2022-08-02T03:23:33;18.10;61.10
9837;DHT22;4957;51.412;6.724;2022-08-02T03:25:59;18.10;61.50
9837;DHT22;4957;51.412;6.724;2022-08-02T03:28:25;18.10;61.90
9837;DHT22;4957;51.412;6.724;2022-08-02T03:30:51;18.00;61.80
9837;DHT22;4957;51.412;6.724;2022-08-02T03:33:18;18.00;62.10
9837;DHT22;4957;51.412;6.724;2022-08-02T03:35:46;18.00;62.30
9837;DHT22;4957;51.412;6.724;2022-08-02T03:38:12;18.00;62.50
9837;DHT22;4957;51.412;6.724;2022-08-02T03:40:44;17.90;62.40
9837;DHT22;4957;51.412;6.724;2022-08-02T03:43:11;17.90;62.90
9837;DHT22;4957;51.412;6.724;2022-08-02T03:45:43;17.90;63.00
9837;DHT22;4957;51.412;6.724;2022-08-02T03:48:10;17.90;63.70
9837;DHT22;4957;51.412;6.724;2022-08-02T03:50:37;17.90;63.30
9837;DHT22;4957;51.412;6.724;2022-08-02T03:53:04;17.80;63.60
9837;DHT22;4957;51.412;6.724;2022-08-02T03:55:31;17.80;64.00
9837;DHT22;4957;51.412;6.724;2022-08-02T03:57:57;17.80;64.20
9837;DHT22;4957;51.412;6.724;2022-08-02T04:00:23;17.70;64.40
9837;DHT22;4957;51.412;6.724;2022-08-02T04:02:49;17.70;64.00
9837;DHT22;4957;51.412;6.724;2022-08-02T04:05:16;17.70;64.60
9837;DHT22;4957;51.412;6.724;2022-08-02T04:07:41;17.70;65.00
9837;DHT22;4957;51.412;6.724;2022-08-02T04:10:08;17.70;65.00
9837;DHT22;4957;51.412;6.724;2022-08-02T04:12:34;17.70;65.60
9837;DHT22;4957;51.412;6.724;2022-08-02T04:15:00;17.70;65.80
9837;DHT22;4957;51.412;6.724;2022-08-02T04:17:27;17.70;65.50
9837;DHT22;4957;51.412;6.724;2022-08-02T04:20:07;17.70;65.70
9837;DHT22;4957;51.412;6.724;2022-08-02T04:23:03;17.70;66.70
9837;DHT22;4957;51.412;6.724;2022-08-02T04:25:30;17.70;67.20
9837;DHT22;4957;51.412;6.724;2022-08-02T04:27:58;17.60;65.90
9837;DHT22;4957;51.412;6.724;2022-08-02T04:30:24;17.60;66.40
9837;DHT22;4957;51.412;6.724;2022-08-02T04:32:51;17.60;66.50
9837;DHT22;4957;51.412;6.724;2022-08-02T04:35:17;17.60;66.90
9837;DHT22;4957;51.412;6.724;2022-08-02T04:37:43;17.60;67.10
9837;DHT22;4957;51.412;6.724;2022-08-02T04:40:11;17.60;67.60
9837;DHT22;4957;51.412;6.724;2022-08-02T04:42:37;17.60;68.00
9837;DHT22;4957;51.412;6.724;2022-08-02T04:45:07;17.60;68.00
9837;DHT22;4957;51.412;6.724;2022-08-02T04:47:33;17.60;68.00
9837;DHT22;4957;51.412;6.724;2022-08-02T04:49:59;17.60;68.00
9837;DHT22;4957;51.412;6.724;2022-08-02T04:52:24;17.60;68.30
9837;DHT22;4957;51.412;6.724;2022-08-02T04:54:50;17.60;68.60
9837;DHT22;4957;51.412;6.724;2022-08-02T04:57:18;17.60;68.60
9837;DHT22;4957;51.412;6.724;2022-08-02T05:00:03;17.60;68.80
9837;DHT22;4957;51.412;6.724;2022-08-02T05:02:29;17.60;69.00
9837;DHT22;4957;51.412;6.724;2022-08-02T05:04:55;17.60;69.50
9837;DHT22;4957;51.412;6.724;2022-08-02T05:07:20;17.60;69.50
9837;DHT22;4957;51.412;6.724;2022-08-02T05:09:46;17.60;69.80
9837;DHT22;4957;51.412;6.724;2022-08-02T05:12:11;17.60;70.50
9837;DHT22;4957;51.412;6.724;2022-08-02T05:14:37;17.60;71.00
9837;DHT22;4957;51.412;6.724;2022-08-02T05:17:03;17.60;71.70
9837;DHT22;4957;51.412;6.724;2022-08-02T05:19:28;17.60;72.10
9837;DHT22;4957;51.412;6.724;2022-08-02T05:21:54;17.60;72.80
9837;DHT22;4957;51.412;6.724;2022-08-02T05:24:20;17.70;73.70
9837;DHT22;4957;51.412;6.724;2022-08-02T05:26:45;17.70;74.50
9837;DHT22;4957;51.412;6.724;2022-08-02T05:29:11;17.70;76.10
9837;DHT22;4957;51.412;6.724;2022-08-02T05:31:37;17.80;77.30
9837;DHT22;4957;51.412;6.724;2022-08-02T05:34:02;17.80;77.30
9837;DHT22;4957;51.412;6.724;2022-08-02T05:36:28;17.90;78.40
9837;DHT22;4957;51.412;6.724;2022-08-02T05:38:53;17.90;79.40
9837;DHT22;4957;51.412;6.724;2022-08-02T05:41:19;18.00;80.10
9837;DHT22;4957;51.412;6.724;2022-08-02T05:43:46;18.10;80.60
9837;DHT22;4957;51.412;6.724;2022-08-02T05:46:12;18.10;80.90
9837;DHT22;4957;51.412;6.724;2022-08-02T05:48:37;18.20;81.20
9837;DHT22;4957;51.412;6.724;2022-08-02T05:51:05;18.30;81.60
9837;DHT22;4957;51.412;6.724;2022-08-02T05:59:09;18.50;81.60
9837;DHT22;4957;51.412;6.724;2022-08-02T06:01:42;18.70;82.70
9837;DHT22;4957;51.412;6.724;2022-08-02T06:04:10;18.70;81.90
9837;DHT22;4957;51.412;6.724;2022-08-02T06:06:42;18.80;81.40
9837;DHT22;4957;51.412;6.724;2022-08-02T06:09:16;19.00;81.90
9837;DHT22;4957;51.412;6.724;2022-08-02T06:11:46;19.00;81.90
9837;DHT22;4957;51.412;6.724;2022-08-02T06:14:17;19.10;81.70
9837;DHT22;4957;51.412;6.724;2022-08-02T06:16:43;19.30;81.60
9837;DHT22;4957;51.412;6.724;2022-08-02T06:19:11;19.40;81.40
9837;DHT22;4957;51.412;6.724;2022-08-02T06:21:41;19.50;81.20
9837;DHT22;4957;51.412;6.724;2022-08-02T06:24:12;19.60;80.80
9837;DHT22;4957;51.412;6.724;2022-08-02T06:26:38;19.70;80.60
9837;DHT22;4957;51.412;6.724;2022-08-02T06:29:05;19.90;80.20
9837;DHT22;4957;51.412;6.724;2022-08-02T06:31:32;20.00;79.70
9837;DHT22;4957;51.412;6.724;2022-08-02T06:33:57;20.10;79.60
9837;DHT22;4957;51.412;6.724;2022-08-02T06:39:04;20.40;78.60
9837;DHT22;4957;51.412;6.724;2022-08-02T06:41:40;20.60;78.10
9837;DHT22;4957;51.412;6.724;2022-08-02T06:44:07;20.80;77.60
9837;DHT22;4957;51.412;6.724;2022-08-02T06:46:33;20.90;76.40
9837;DHT22;4957;51.412;6.724;2022-08-02T06:48:59;21.10;75.90
9837;DHT22;4957;51.412;6.724;2022-08-02T06:51:26;21.20;75.60
9837;DHT22;4957;51.412;6.724;2022-08-02T06:53:52;21.40;75.10
9837;DHT22;4957;51.412;6.724;2022-08-02T06:56:17;21.60;74.50
9837;DHT22;4957;51.412;6.724;2022-08-02T06:58:44;21.70;74.00
9837;DHT22;4957;51.412;6.724;2022-08-02T07:01:09;21.90;73.60
9837;DHT22;4957;51.412;6.724;2022-08-02T07:03:37;22.00;72.70
9837;DHT22;4957;51.412;6.724;2022-08-02T07:06:04;22.20;72.20
9837;DHT22;4957;51.412;6.724;2022-08-02T07:08:30;22.30;71.20
9837;DHT22;4957;51.412;6.724;2022-08-02T07:11:00;22.50;70.40
9837;DHT22;4957;51.412;6.724;2022-08-02T07:13:26;22.70;70.10
9837;DHT22;4957;51.412;6.724;2022-08-02T07:15:52;22.80;69.30
9837;DHT22;4957;51.412;6.724;2022-08-02T07:18:19;23.00;68.50
9837;DHT22;4957;51.412;6.724;2022-08-02T07:20:45;23.20;68.00
9837;DHT22;4957;51.412;6.724;2022-08-02T07:23:10;23.30;67.70
9837;DHT22;4957;51.412;6.724;2022-08-02T07:25:36;23.50;67.20
9837;DHT22;4957;51.412;6.724;2022-08-02T07:28:03;23.70;66.30
9837;DHT22;4957;51.412;6.724;2022-08-02T07:30:29;23.90;65.80
9837;DHT22;4957;51.412;6.724;2022-08-02T07:32:57;24.10;65.50
9837;DHT22;4957;51.412;6.724;2022-08-02T07:35:23;24.30;65.10
9837;DHT22;4957;51.412;6.724;2022-08-02T07:37:49;24.50;64.50
9837;DHT22;4957;51.412;6.724;2022-08-02T07:40:15;24.70;64.50
9837;DHT22;4957;51.412;6.724;2022-08-02T07:42:44;24.90;63.10
9837;DHT22;4957;51.412;6.724;2022-08-02T07:45:11;25.10;62.30
9837;DHT22;4957;51.412;6.724;2022-08-02T07:47:38;25.30;61.30
9837;DHT22;4957;51.412;6.724;2022-08-02T07:50:05;25.50;60.50
9837;DHT22;4957;51.412;6.724;2022-08-02T07:52:31;25.70;59.80
9837;DHT22;4957;51.412;6.724;2022-08-02T07:54:57;26.00;59.20
9837;DHT22;4957;51.412;6.724;2022-08-02T07:57:23;26.10;58.40
9837;DHT22;4957;51.412;6.724;2022-08-02T07:59:49;26.40;58.30
9837;DHT22;4957;51.412;6.724;2022-08-02T08:02:16;26.60;57.80
9837;DHT22;4957;51.412;6.724;2022-08-02T08:04:42;26.80;57.30
9837;DHT22;4957;51.412;6.724;2022-08-02T08:07:08;27.00;56.70
9837;DHT22;4957;51.412;6.724;2022-08-02T08:09:39;27.20;55.90
9837;DHT22;4957;51.412;6.724;2022-08-02T08:12:10;27.40;55.20
9837;DHT22;4957;51.412;6.724;2022-08-02T08:14:37;27.60;54.60
9837;DHT22;4957;51.412;6.724;2022-08-02T08:17:03;27.80;54.60
9837;DHT22;4957;51.412;6.724;2022-08-02T08:19:29;28.00;53.80
9837;DHT22;4957;51.412;6.724;2022-08-02T08:21:55;28.30;53.40
9837;DHT22;4957;51.412;6.724;2022-08-02T08:24:20;28.50;52.90
9837;DHT22;4957;51.412;6.724;2022-08-02T08:26:46;28.70;52.50
9837;DHT22;4957;51.412;6.724;2022-08-02T08:29:12;28.90;51.90
9837;DHT22;4957;51.412;6.724;2022-08-02T08:31:37;29.10;51.40
9837;DHT22;4957;51.412;6.724;2022-08-02T08:34:03;29.40;50.80
9837;DHT22;4957;51.412;6.724;2022-08-02T08:36:29;29.60;50.20
9837;DHT22;4957;51.412;6.724;2022-08-02T08:38:55;29.80;49.60
9837;DHT22;4957;51.412;6.724;2022-08-02T08:41:21;30.00;49.20
9837;DHT22;4957;51.412;6.724;2022-08-02T08:43:47;30.20;48.70
9837;DHT22;4957;51.412;6.724;2022-08-02T08:46:28;30.30;48.20
9837;DHT22;4957;51.412;6.724;2022-08-02T08:48:59;30.60;47.50
9837;DHT22;4957;51.412;6.724;2022-08-02T08:51:30;30.70;47.30
9837;DHT22;4957;51.412;6.724;2022-08-02T08:54:01;31.00;47.20
9837;DHT22;4957;51.412;6.724;2022-08-02T08:56:34;31.20;46.60
9837;DHT22;4957;51.412;6.724;2022-08-02T08:59:02;31.40;46.10
9837;DHT22;4957;51.412;6.724;2022-08-02T09:01:29;31.50;45.70
9837;DHT22;4957;51.412;6.724;2022-08-02T09:03:56;31.70;45.50
9837;DHT22;4957;51.412;6.724;2022-08-02T09:06:22;31.90;45.10
9837;DHT22;4957;51.412;6.724;2022-08-02T09:08:48;32.10;44.70
9837;DHT22;4957;51.412;6.724;2022-08-02T09:11:21;32.20;44.30
9837;DHT22;4957;51.412;6.724;2022-08-02T09:13:52;32.40;43.90
9837;DHT22;4957;51.412;6.724;2022-08-02T09:16:31;32.60;43.60
9837;DHT22;4957;51.412;6.724;2022-08-02T09:18:58;32.80;43.00
9837;DHT22;4957;51.412;6.724;2022-08-02T09:21:33;33.00;42.90
9837;DHT22;4957;51.412;6.724;2022-08-02T09:23:59;33.20;42.10
9837;DHT22;4957;51.412;6.724;2022-08-02T09:26:25;33.40;42.20
9837;DHT22;4957;51.412;6.724;2022-08-02T09:28:59;33.60;41.80
9837;DHT22;4957;51.412;6.724;2022-08-02T09:31:25;33.80;41.30
9837;DHT22;4957;51.412;6.724;2022-08-02T09:33:56;34.00;41.20
9837;DHT22;4957;51.412;6.724;2022-08-02T09:36:23;34.20;40.60
9837;DHT22;4957;51.412;6.724;2022-08-02T09:38:57;34.30;40.40
9837;DHT22;4957;51.412;6.724;2022-08-02T09:41:26;34.60;40.00
9837;DHT22;4957;51.412;6.724;2022-08-02T09:43:52;34.70;39.80
9837;DHT22;4957;51.412;6.724;2022-08-02T09:46:27;34.80;39.40
9837;DHT22;4957;51.412;6.724;2022-08-02T09:49:09;35.00;39.10
9837;DHT22;4957;51.412;6.724;2022-08-02T09:54:16;35.30;38.70
9837;DHT22;4957;51.412;6.724;2022-08-02T09:56:51;35.50;38.20
9837;DHT22;4957;51.412;6.724;2022-08-02T09:59:18;35.70;37.90
9837;DHT22;4957;51.412;6.724;2022-08-02T10:01:46;35.90;37.90
9837;DHT22;4957;51.412;6.724;2022-08-02T10:04:13;36.10;37.60
9837;DHT22;4957;51.412;6.724;2022-08-02T10:06:40;36.20;37.20
9837;DHT22;4957;51.412;6.724;2022-08-02T10:09:07;36.40;36.80
9837;DHT22;4957;51.412;6.724;2022-08-02T10:11:34;36.60;36.50
9837;DHT22;4957;51.412;6.724;2022-08-02T10:14:02;36.60;36.20
9837;DHT22;4957;51.412;6.724;2022-08-02T10:16:30;36.70;35.80
9837;DHT22;4957;51.412;6.724;2022-08-02T10:18:57;36.70;35.70
9837;DHT22;4957;51.412;6.724;2022-08-02T10:21:43;36.80;35.70
9837;DHT22;4957;51.412;6.724;2022-08-02T10:24:15;36.80;35.30
9837;DHT22;4957;51.412;6.724;2022-08-02T10:26:46;36.80;35.20
9837;DHT22;4957;51.412;6.724;2022-08-02T10:29:18;36.80;35.00
9837;DHT22;4957;51.412;6.724;2022-08-02T10:32:14;36.80;35.00
9837;DHT22;4957;51.412;6.724;2022-08-02T10:34:59;36.70;34.80
9837;DHT22;4957;51.412;6.724;2022-08-02T10:37:32;36.70;34.90
9837;DHT22;4957;51.412;6.724;2022-08-02T10:39:59;36.70;34.80
9837;DHT22;4957;51.412;6.724;2022-08-02T10:42:55;36.70;34.80
9837;DHT22;4957;51.412;6.724;2022-08-02T10:45:23;36.80;34.20
9837;DHT22;4957;51.412;6.724;2022-08-02T10:48:03;36.80;34.80
9837;DHT22;4957;51.412;6.724;2022-08-02T10:53:37;36.90;34.20
9837;DHT22;4957;51.412;6.724;2022-08-02T10:56:04;37.00;33.80
9837;DHT22;4957;51.412;6.724;2022-08-02T10:58:32;37.10;34.10
9837;DHT22;4957;51.412;6.724;2022-08-02T11:01:03;37.10;33.90
9837;DHT22;4957;51.412;6.724;2022-08-02T11:03:39;37.20;33.50
9837;DHT22;4957;51.412;6.724;2022-08-02T11:06:10;37.20;33.80
9837;DHT22;4957;51.412;6.724;2022-08-02T11:08:36;37.30;33.30
9837;DHT22;4957;51.412;6.724;2022-08-02T11:19:18;37.70;31.90
9837;DHT22;4957;51.412;6.724;2022-08-02T11:24:29;37.90;32.00
9837;DHT22;4957;51.412;6.724;2022-08-02T11:26:56;38.00;32.00
9837;DHT22;4957;51.412;6.724;2022-08-02T11:29:31;38.00;32.10
9837;DHT22;4957;51.412;6.724;2022-08-02T11:31:58;38.10;31.90
9837;DHT22;4957;51.412;6.724;2022-08-02T11:34:24;38.00;32.00
9837;DHT22;4957;51.412;6.724;2022-08-02T11:36:50;38.10;31.70
9837;DHT22;4957;51.412;6.724;2022-08-02T11:39:19;38.10;31.70
9837;DHT22;4957;51.412;6.724;2022-08-02T11:41:54;38.00;31.70
9837;DHT22;4957;51.412;6.724;2022-08-02T11:44:22;38.00;32.00
9837;DHT22;4957;51.412;6.724;2022-08-02T11:46:57;38.00;31.80
9837;DHT22;4957;51.412;6.724;2022-08-02T11:49:24;38.00;31.20
9837;DHT22;4957;51.412;6.724;2022-08-02T11:52:02;38.00;31.40
9837;DHT22;4957;51.412;6.724;2022-08-02T11:54:37;38.10;31.70
9837;DHT22;4957;51.412;6.724;2022-08-02T11:59:43;38.10;30.80
9837;DHT22;4957;51.412;6.724;2022-08-02T12:02:10;38.20;31.00
9837;DHT22;4957;51.412;6.724;2022-08-02T12:04:36;38.20;31.10
9837;DHT22;4957;51.412;6.724;2022-08-02T12:07:03;38.30;30.70
9837;DHT22;4957;51.412;6.724;2022-08-02T12:09:31;38.30;30.70
9837;DHT22;4957;51.412;6.724;2022-08-02T12:11:58;38.40;30.30
9837;DHT22;4957;51.412;6.724;2022-08-02T12:14:26;38.40;30.20
9837;DHT22;4957;51.412;6.724;2022-08-02T12:16:53;38.40;30.20
9837;DHT22;4957;51.412;6.724;2022-08-02T12:19:40;38.40;30.40
9837;DHT22;4957;51.412;6.724;2022-08-02T12:22:17;38.30;30.30
9837;DHT22;4957;51.412;6.724;2022-08-02T12:24:49;38.30;30.70
9837;DHT22;4957;51.412;6.724;2022-08-02T12:27:36;38.40;30.70
9837;DHT22;4957;51.412;6.724;2022-08-02T12:30:14;38.40;30.60
9837;DHT22;4957;51.412;6.724;2022-08-02T12:32:40;38.40;30.50
9837;DHT22;4957;51.412;6.724;2022-08-02T12:35:12;38.50;30.80
9837;DHT22;4957;51.412;6.724;2022-08-02T12:37:43;38.60;30.40
9837;DHT22;4957;51.412;6.724;2022-08-02T12:40:31;38.60;30.20
9837;DHT22;4957;51.412;6.724;2022-08-02T12:43:02;38.70;30.00
9837;DHT22;4957;51.412;6.724;2022-08-02T12:45:32;38.80;30.00
9837;DHT22;4957;51.412;6.724;2022-08-02T12:47:59;38.80;30.40
9837;DHT22;4957;51.412;6.724;2022-08-02T12:50:32;38.80;30.10
9837;DHT22;4957;51.412;6.724;2022-08-02T12:53:21;38.80;29.70
9837;DHT22;4957;51.412;6.724;2022-08-02T12:55:56;38.90;29.60
9837;DHT22;4957;51.412;6.724;2022-08-02T12:58:22;38.90;30.00
9837;DHT22;4957;51.412;6.724;2022-08-02T13:00:53;38.90;30.00
9837;DHT22;4957;51.412;6.724;2022-08-02T13:03:19;38.90;29.80
9837;DHT22;4957;51.412;6.724;2022-08-02T13:05:45;38.80;30.00
9837;DHT22;4957;51.412;6.724;2022-08-02T13:08:11;38.80;30.00
9837;DHT22;4957;51.412;6.724;2022-08-02T13:10:37;38.80;29.70
9837;DHT22;4957;51.412;6.724;2022-08-02T13:13:03;38.80;29.60
9837;DHT22;4957;51.412;6.724;2022-08-02T13:15:28;38.70;30.10
9837;DHT22;4957;51.412;6.724;2022-08-02T13:17:55;38.70;29.80
9837;DHT22;4957;51.412;6.724;2022-08-02T13:20:20;38.70;29.40
9837;DHT22;4957;51.412;6.724;2022-08-02T13:22:46;38.60;29.60
9837;DHT22;4957;51.412;6.724;2022-08-02T13:25:12;38.60;29.60
9837;DHT22;4957;51.412;6.724;2022-08-02T13:27:38;38.60;29.70
9837;DHT22;4957;51.412;6.724;2022-08-02T13:30:04;38.50;30.00
9837;DHT22;4957;51.412;6.724;2022-08-02T13:32:31;38.50;29.60
9837;DHT22;4957;51.412;6.724;2022-08-02T13:34:57;38.40;29.30
9837;DHT22;4957;51.412;6.724;2022-08-02T13:37:23;38.40;30.20
9837;DHT22;4957;51.412;6.724;2022-08-02T13:39:49;38.30;30.10
9837;DHT22;4957;51.412;6.724;2022-08-02T13:42:15;38.20;29.80
9837;DHT22;4957;51.412;6.724;2022-08-02T13:44:40;38.20;29.90
9837;DHT22;4957;51.412;6.724;2022-08-02T13:47:06;38.10;30.00
9837;DHT22;4957;51.412;6.724;2022-08-02T13:49:38;38.00;29.70
9837;DHT22;4957;51.412;6.724;2022-08-02T13:52:06;37.80;30.00
9837;DHT22;4957;51.412;6.724;2022-08-02T13:54:32;37.80;29.90
9837;DHT22;4957;51.412;6.724;2022-08-02T13:56:59;37.70;29.90
9837;DHT22;4957;51.412;6.724;2022-08-02T13:59:24;37.60;30.00
9837;DHT22;4957;51.412;6.724;2022-08-02T14:01:51;37.50;29.90
9837;DHT22;4957;51.412;6.724;2022-08-02T14:04:16;37.40;30.00
9837;DHT22;4957;51.412;6.724;2022-08-02T14:06:42;37.30;30.10
9837;DHT22;4957;51.412;6.724;2022-08-02T14:09:08;37.20;30.40
9837;DHT22;4957;51.412;6.724;2022-08-02T14:11:33;37.10;30.40
9837;DHT22;4957;51.412;6.724;2022-08-02T14:13:59;37.00;31.50
9837;DHT22;4957;51.412;6.724;2022-08-02T14:16:25;37.00;31.00
9837;DHT22;4957;51.412;6.724;2022-08-02T14:18:50;36.80;31.10
9837;DHT22;4957;51.412;6.724;2022-08-02T14:21:16;36.70;31.00
9837;DHT22;4957;51.412;6.724;2022-08-02T14:23:42;36.70;30.80
9837;DHT22;4957;51.412;6.724;2022-08-02T14:26:07;36.60;30.90
9837;DHT22;4957;51.412;6.724;2022-08-02T14:28:37;36.50;31.00
9837;DHT22;4957;51.412;6.724;2022-08-02T14:31:03;36.40;31.00
9837;DHT22;4957;51.412;6.724;2022-08-02T14:33:29;36.40;31.60
9837;DHT22;4957;51.412;6.724;2022-08-02T14:35:54;36.30;31.30
9837;DHT22;4957;51.412;6.724;2022-08-02T14:38:24;36.20;31.30
9837;DHT22;4957;51.412;6.724;2022-08-02T14:40:50;36.20;32.00
9837;DHT22;4957;51.412;6.724;2022-08-02T14:43:15;36.10;31.60
9837;DHT22;4957;51.412;6.724;2022-08-02T14:46:00;35.90;31.60
9837;DHT22;4957;51.412;6.724;2022-08-02T14:48:27;35.90;31.80
9837;DHT22;4957;51.412;6.724;2022-08-02T14:50:53;35.80;32.80
9837;DHT22;4957;51.412;6.724;2022-08-02T14:53:18;35.70;32.20
9837;DHT22;4957;51.412;6.724;2022-08-02T14:55:44;35.70;32.10
9837;DHT22;4957;51.412;6.724;2022-08-02T14:58:10;35.60;31.70
9837;DHT22;4957;51.412;6.724;2022-08-02T15:00:36;35.60;31.60
9837;DHT22;4957;51.412;6.724;2022-08-02T15:03:02;35.50;31.60
9837;DHT22;4957;51.412;6.724;2022-08-02T15:05:28;35.50;31.60
9837;DHT22;4957;51.412;6.724;2022-08-02T15:07:54;35.40;31.50
9837;DHT22;4957;51.412;6.724;2022-08-02T15:10:19;35.40;31.50
9837;DHT22;4957;51.412;6.724;2022-08-02T15:12:45;35.30;31.50
9837;DHT22;4957;51.412;6.724;2022-08-02T15:15:10;35.30;31.50
9837;DHT22;4957;51.412;6.724;2022-08-02T15:17:36;35.20;31.60
9837;DHT22;4957;51.412;6.724;2022-08-02T15:20:02;35.20;31.70
9837;DHT22;4957;51.412;6.724;2022-08-02T15:22:28;35.20;31.70
9837;DHT22;4957;51.412;6.724;2022-08-02T15:24:54;35.20;31.80
9837;DHT22;4957;51.412;6.724;2022-08-02T15:27:19;35.10;31.70
9837;DHT22;4957;51.412;6.724;2022-08-02T15:29:45;35.10;32.20
9837;DHT22;4957;51.412;6.724;2022-08-02T15:32:11;35.10;31.90
9837;DHT22;4957;51.412;6.724;2022-08-02T15:34:37;35.10;32.30
9837;DHT22;4957;51.412;6.724;2022-08-02T15:37:03;35.10;33.00
9837;DHT22;4957;51.412;6.724;2022-08-02T15:39:29;35.10;32.40
9837;DHT22;4957;51.412;6.724;2022-08-02T15:41:55;35.10;32.40
9837;DHT22;4957;51.412;6.724;2022-08-02T15:44:21;35.00;32.50
9837;DHT22;4957;51.412;6.724;2022-08-02T15:46:47;35.00;32.40
9837;DHT22;4957;51.412;6.724;2022-08-02T15:49:13;35.00;32.40
9837;DHT22;4957;51.412;6.724;2022-08-02T15:51:38;35.00;32.40
9837;DHT22;4957;51.412;6.724;2022-08-02T15:54:04;34.90;32.50
9837;DHT22;4957;51.412;6.724;2022-08-02T15:56:29;34.90;32.60
9837;DHT22;4957;51.412;6.724;2022-08-02T15:58:55;34.80;32.60
9837;DHT22;4957;51.412;6.724;2022-08-02T16:01:21;34.80;32.70
9837;DHT22;4957;51.412;6.724;2022-08-02T16:03:47;34.70;32.50
9837;DHT22;4957;51.412;6.724;2022-08-02T16:06:13;34.70;32.70
9837;DHT22;4957;51.412;6.724;2022-08-02T16:08:40;34.70;33.50
9837;DHT22;4957;51.412;6.724;2022-08-02T16:11:05;34.70;33.20
9837;DHT22;4957;51.412;6.724;2022-08-02T16:13:31;34.80;33.40
9837;DHT22;4957;51.412;6.724;2022-08-02T16:16:16;34.80;34.40
9837;DHT22;4957;51.412;6.724;2022-08-02T16:18:41;34.90;33.80
9837;DHT22;4957;51.412;6.724;2022-08-02T16:21:07;34.90;33.20
9837;DHT22;4957;51.412;6.724;2022-08-02T16:23:33;34.90;33.00
9837;DHT22;4957;51.412;6.724;2022-08-02T16:25:59;34.80;32.80
9837;DHT22;4957;51.412;6.724;2022-08-02T16:28:24;34.80;32.80
9837;DHT22;4957;51.412;6.724;2022-08-02T16:30:50;34.80;32.80
9837;DHT22;4957;51.412;6.724;2022-08-02T16:33:16;34.80;33.00
9837;DHT22;4957;51.412;6.724;2022-08-02T16:35:41;34.80;32.90
9837;DHT22;4957;51.412;6.724;2022-08-02T16:38:07;34.80;33.00
9837;DHT22;4957;51.412;6.724;2022-08-02T16:40:33;34.70;32.90
9837;DHT22;4957;51.412;6.724;2022-08-02T16:43:00;34.70;33.00
9837;DHT22;4957;51.412;6.724;2022-08-02T16:45:26;34.80;32.80
9837;DHT22;4957;51.412;6.724;2022-08-02T16:47:52;34.70;32.60
9837;DHT22;4957;51.412;6.724;2022-08-02T16:50:19;34.70;32.60